sensor_id;sensor_type;location;lat;lon;timestamp;P1;durP1;ratioP1;P2;durP2;ratioP2
8791;SDS011;4432;50.890;4.744;2023-04-24T00:00:17;9.83;;;5.87;;
8791;SDS011;4432;50.890;4.744;2023-04-24T00:02:43;11.40;;;5.77;;
8791;SDS011;4432;50.890;4.744;2023-04-24T00:05:16;11.90;;;6.20;;
8791;SDS011;4432;50.890;4.744;2023-04-24T00:07:43;11.63;;;6.03;;
8791;SDS011;4432;50.890;4.744;2023-04-24T00:10:10;13.27;;;6.40;;
8791;SDS011;4432;50.890;4.744;2023-04-24T00:12:36;11.53;;;6.47;;
8791;SDS011;4432;50.890;4.744;2023-04-24T00:15:02;11.73;;;5.83;;
8791;SDS011;4432;50.890;4.744;2023-04-24T00:17:28;8.10;;;5.47;;
8791;SDS011;4432;50.890;4.744;2023-04-24T00:19:54;7.50;;;5.67;;
8791;SDS011;4432;50.890;4.744;2023-04-24T00:22:28;14.30;;;6.17;;
8791;SDS011;4432;50.890;4.744;2023-04-24T00:24:54;9.13;;;5.40;;
8791;SDS011;4432;50.890;4.744;2023-04-24T00:27:20;8.23;;;6.33;;
8791;SDS011;4432;50.890;4.744;2023-04-24T00:29:46;11.73;;;6.20;;
8791;SDS011;4432;50.890;4.744;2023-04-24T00:32:14;10.97;;;7.07;;
8791;SDS011;4432;50.890;4.744;2023-04-24T00:34:40;11.93;;;6.53;;
8791;SDS011;4432;50.890;4.744;2023-04-24T00:37:06;9.87;;;6.53;;
8791;SDS011;4432;50.890;4.744;2023-04-24T00:39:32;15.03;;;6.07;;
8791;SDS011;4432;50.890;4.744;2023-04-24T00:41:58;14.37;;;6.53;;
8791;SDS011;4432;50.890;4.744;2023-04-24T00:44:24;14.00;;;6.17;;
8791;SDS011;4432;50.890;4.744;2023-04-24T00:46:50;11.77;;;6.00;;
8791;SDS011;4432;50.890;4.744;2023-04-24T00:49:20;15.13;;;6.17;;
8791;SDS011;4432;50.890;4.744;2023-04-24T00:51:47;20.57;;;7.40;;
8791;SDS011;4432;50.890;4.744;2023-04-24T00:54:14;13.30;;;6.63;;
8791;SDS011;4432;50.890;4.744;2023-04-24T00:56:41;11.73;;;5.83;;
8791;SDS011;4432;50.890;4.744;2023-04-24T00:59:08;10.87;;;6.63;;
8791;SDS011;4432;50.890;4.744;2023-04-24T01:01:34;9.87;;;6.50;;
8791;SDS011;4432;50.890;4.744;2023-04-24T01:04:01;9.83;;;6.03;;
8791;SDS011;4432;50.890;4.744;2023-04-24T01:06:30;9.30;;;6.80;;
8791;SDS011;4432;50.890;4.744;2023-04-24T01:08:59;15.03;;;6.70;;
8791;SDS011;4432;50.890;4.744;2023-04-24T01:11:25;12.50;;;6.90;;
8791;SDS011;4432;50.890;4.744;2023-04-24T01:13:54;13.13;;;6.63;;
8791;SDS011;4432;50.890;4.744;2023-04-24T01:16:21;10.73;;;7.07;;
8791;SDS011;4432;50.890;4.744;2023-04-24T01:18:47;10.40;;;6.93;;
8791;SDS011;4432;50.890;4.744;2023-04-24T01:21:13;18.60;;;7.03;;
8791;SDS011;4432;50.890;4.744;2023-04-24T01:23:42;13.60;;;8.03;;
8791;SDS011;4432;50.890;4.744;2023-04-24T01:26:09;18.17;;;7.17;;
8791;SDS011;4432;50.890;4.744;2023-04-24T01:28:34;12.03;;;6.67;;
8791;SDS011;4432;50.890;4.744;2023-04-24T01:31:00;14.53;;;6.90;;
8791;SDS011;4432;50.890;4.744;2023-04-24T01:33:26;14.60;;;5.80;;
8791;SDS011;4432;50.890;4.744;2023-04-24T01:35:52;11.47;;;6.37;;
8791;SDS011;4432;50.890;4.744;2023-04-24T01:38:18;13.10;;;5.80;;
8791;SDS011;4432;50.890;4.744;2023-04-24T01:40:44;9.73;;;6.33;;
8791;SDS011;4432;50.890;4.744;2023-04-24T01:43:11;9.27;;;5.53;;
8791;SDS011;4432;50.890;4.744;2023-04-24T01:45:37;6.90;;;4.73;;
8791;SDS011;4432;50.890;4.744;2023-04-24T01:48:03;9.93;;;5.53;;
8791;SDS011;4432;50.890;4.744;2023-04-24T01:50:28;10.90;;;5.60;;
8791;SDS011;4432;50.890;4.744;2023-04-24T01:52:55;7.53;;;5.63;;
8791;SDS011;4432;50.890;4.744;2023-04-24T01:55:21;7.73;;;4.80;;
8791;SDS011;4432;50.890;4.744;2023-04-24T01:57:47;8.07;;;5.13;;
8791;SDS011;4432;50.890;4.744;2023-04-24T02:00:13;10.27;;;5.47;;
8791;SDS011;4432;50.890;4.744;2023-04-24T02:02:40;9.17;;;5.07;;
8791;SDS011;4432;50.890;4.744;2023-04-24T02:05:06;11.43;;;5.87;;
8791;SDS011;4432;50.890;4.744;2023-04-24T02:07:33;14.90;;;6.00;;
8791;SDS011;4432;50.890;4.744;2023-04-24T02:09:59;10.03;;;5.77;;
8791;SDS011;4432;50.890;4.744;2023-04-24T02:12:25;8.17;;;5.40;;
8791;SDS011;4432;50.890;4.744;2023-04-24T02:14:50;8.37;;;4.83;;
8791;SDS011;4432;50.890;4.744;2023-04-24T02:17:16;12.23;;;4.93;;
8791;SDS011;4432;50.890;4.744;2023-04-24T02:19:43;8.10;;;4.67;;
8791;SDS011;4432;50.890;4.744;2023-04-24T02:22:09;9.77;;;5.73;;
8791;SDS011;4432;50.890;4.744;2023-04-24T02:24:36;6.63;;;4.70;;
8791;SDS011;4432;50.890;4.744;2023-04-24T02:27:02;8.47;;;5.13;;
8791;SDS011;4432;50.890;4.744;2023-04-24T02:29:28;11.70;;;5.63;;
8791;SDS011;4432;50.890;4.744;2023-04-24T02:31:54;9.30;;;5.80;;
8791;SDS011;4432;50.890;4.744;2023-04-24T02:34:19;7.03;;;5.10;;
8791;SDS011;4432;50.890;4.744;2023-04-24T02:36:45;13.13;;;5.40;;
8791;SDS011;4432;50.890;4.744;2023-04-24T02:39:11;9.90;;;5.70;;
8791;SDS011;4432;50.890;4.744;2023-04-24T02:41:38;14.70;;;6.43;;
8791;SDS011;4432;50.890;4.744;2023-04-24T02:44:04;8.80;;;6.03;;
8791;SDS011;4432;50.890;4.744;2023-04-24T02:46:30;10.50;;;6.47;;
8791;SDS011;4432;50.890;4.744;2023-04-24T02:48:55;13.73;;;6.33;;
8791;SDS011;4432;50.890;4.744;2023-04-24T02:51:21;7.37;;;5.70;;
8791;SDS011;4432;50.890;4.744;2023-04-24T02:53:47;9.53;;;6.33;;
8791;SDS011;4432;50.890;4.744;2023-04-24T02:56:12;9.03;;;6.30;;
8791;SDS011;4432;50.890;4.744;2023-04-24T02:58:38;9.40;;;5.83;;
8791;SDS011;4432;50.890;4.744;2023-04-24T03:01:04;12.07;;;6.80;;
8791;SDS011;4432;50.890;4.744;2023-04-24T03:03:30;10.30;;;6.57;;
8791;SDS011;4432;50.890;4.744;2023-04-24T03:05:56;15.73;;;5.80;;
8791;SDS011;4432;50.890;4.744;2023-04-24T03:08:22;7.23;;;6.00;;
8791;SDS011;4432;50.890;4.744;2023-04-24T03:10:48;10.80;;;5.77;;
8791;SDS011;4432;50.890;4.744;2023-04-24T03:13:15;10.80;;;6.10;;
8791;SDS011;4432;50.890;4.744;2023-04-24T03:15:41;9.87;;;5.87;;
8791;SDS011;4432;50.890;4.744;2023-04-24T03:18:07;9.57;;;5.80;;
8791;SDS011;4432;50.890;4.744;2023-04-24T03:20:33;8.73;;;5.77;;
8791;SDS011;4432;50.890;4.744;2023-04-24T03:22:59;7.57;;;6.10;;
8791;SDS011;4432;50.890;4.744;2023-04-24T03:25:25;11.30;;;5.93;;
8791;SDS011;4432;50.890;4.744;2023-04-24T03:27:51;10.00;;;5.80;;
8791;SDS011;4432;50.890;4.744;2023-04-24T03:30:17;10.07;;;6.40;;
8791;SDS011;4432;50.890;4.744;2023-04-24T03:32:42;9.97;;;6.00;;
8791;SDS011;4432;50.890;4.744;2023-04-24T03:35:08;10.33;;;5.73;;
8791;SDS011;4432;50.890;4.744;2023-04-24T03:37:34;7.47;;;5.50;;
8791;SDS011;4432;50.890;4.744;2023-04-24T03:40:00;15.17;;;6.27;;
8791;SDS011;4432;50.890;4.744;2023-04-24T03:42:26;5.23;;;4.70;;
8791;SDS011;4432;50.890;4.744;2023-04-24T03:44:52;7.20;;;4.87;;
8791;SDS011;4432;50.890;4.744;2023-04-24T03:47:18;7.00;;;5.47;;
8791;SDS011;4432;50.890;4.744;2023-04-24T03:49:44;6.77;;;5.20;;
8791;SDS011;4432;50.890;4.744;2023-04-24T03:52:10;6.30;;;4.53;;
8791;SDS011;4432;50.890;4.744;2023-04-24T03:54:36;10.07;;;5.17;;
8791;SDS011;4432;50.890;4.744;2023-04-24T03:57:01;6.47;;;5.03;;
8791;SDS011;4432;50.890;4.744;2023-04-24T03:59:28;7.20;;;4.73;;
8791;SDS011;4432;50.890;4.744;2023-04-24T04:01:54;6.33;;;5.17;;
8791;SDS011;4432;50.890;4.744;2023-04-24T04:04:20;11.50;;;4.77;;
8791;SDS011;4432;50.890;4.744;2023-04-24T04:06:45;7.57;;;4.67;;
8791;SDS011;4432;50.890;4.744;2023-04-24T04:09:11;5.20;;;4.10;;
8791;SDS011;4432;50.890;4.744;2023-04-24T04:11:37;9.03;;;5.00;;
8791;SDS011;4432;50.890;4.744;2023-04-24T04:14:03;7.63;;;3.73;;
8791;SDS011;4432;50.890;4.744;2023-04-24T04:16:29;4.67;;;4.00;;
8791;SDS011;4432;50.890;4.744;2023-04-24T04:18:55;5.83;;;4.47;;
8791;SDS011;4432;50.890;4.744;2023-04-24T04:21:20;4.67;;;3.53;;
8791;SDS011;4432;50.890;4.744;2023-04-24T04:23:46;5.77;;;3.73;;
8791;SDS011;4432;50.890;4.744;2023-04-24T04:26:13;5.63;;;3.60;;
8791;SDS011;4432;50.890;4.744;2023-04-24T04:28:39;9.27;;;3.43;;
8791;SDS011;4432;50.890;4.744;2023-04-24T04:31:05;3.50;;;3.10;;
8791;SDS011;4432;50.890;4.744;2023-04-24T04:33:32;6.43;;;3.50;;
8791;SDS011;4432;50.890;4.744;2023-04-24T04:35:58;4.93;;;3.03;;
8791;SDS011;4432;50.890;4.744;2023-04-24T04:38:25;5.37;;;3.20;;
8791;SDS011;4432;50.890;4.744;2023-04-24T04:40:55;5.17;;;3.23;;
8791;SDS011;4432;50.890;4.744;2023-04-24T04:43:22;3.03;;;2.73;;
8791;SDS011;4432;50.890;4.744;2023-04-24T04:45:54;2.90;;;2.70;;
8791;SDS011;4432;50.890;4.744;2023-04-24T04:48:21;5.33;;;3.13;;
8791;SDS011;4432;50.890;4.744;2023-04-24T04:50:47;6.37;;;3.50;;
8791;SDS011;4432;50.890;4.744;2023-04-24T04:53:13;3.33;;;2.60;;
8791;SDS011;4432;50.890;4.744;2023-04-24T04:55:38;2.93;;;2.47;;
8791;SDS011;4432;50.890;4.744;2023-04-24T04:58:04;4.33;;;2.93;;
8791;SDS011;4432;50.890;4.744;2023-04-24T05:00:30;3.17;;;2.63;;
8791;SDS011;4432;50.890;4.744;2023-04-24T05:03:00;4.43;;;3.40;;
8791;SDS011;4432;50.890;4.744;2023-04-24T05:05:26;6.23;;;3.30;;
8791;SDS011;4432;50.890;4.744;2023-04-24T05:07:52;4.77;;;3.43;;
8791;SDS011;4432;50.890;4.744;2023-04-24T05:10:18;6.03;;;4.47;;
8791;SDS011;4432;50.890;4.744;2023-04-24T05:12:43;6.10;;;4.30;;
8791;SDS011;4432;50.890;4.744;2023-04-24T05:15:09;5.70;;;4.53;;
8791;SDS011;4432;50.890;4.744;2023-04-24T05:17:35;6.67;;;4.50;;
8791;SDS011;4432;50.890;4.744;2023-04-24T05:20:02;7.20;;;4.87;;
8791;SDS011;4432;50.890;4.744;2023-04-24T05:22:30;5.00;;;3.97;;
8791;SDS011;4432;50.890;4.744;2023-04-24T05:24:56;8.37;;;5.03;;
8791;SDS011;4432;50.890;4.744;2023-04-24T05:27:22;9.13;;;5.17;;
8791;SDS011;4432;50.890;4.744;2023-04-24T05:29:48;12.77;;;5.37;;
8791;SDS011;4432;50.890;4.744;2023-04-24T05:32:14;6.57;;;4.97;;
8791;SDS011;4432;50.890;4.744;2023-04-24T05:34:40;9.30;;;4.73;;
8791;SDS011;4432;50.890;4.744;2023-04-24T05:37:05;10.47;;;4.97;;
8791;SDS011;4432;50.890;4.744;2023-04-24T05:39:34;6.37;;;4.70;;
8791;SDS011;4432;50.890;4.744;2023-04-24T05:42:00;7.87;;;4.60;;
8791;SDS011;4432;50.890;4.744;2023-04-24T05:44:26;12.80;;;5.00;;
8791;SDS011;4432;50.890;4.744;2023-04-24T05:46:52;9.67;;;5.00;;
8791;SDS011;4432;50.890;4.744;2023-04-24T05:49:20;8.60;;;5.50;;
8791;SDS011;4432;50.890;4.744;2023-04-24T05:51:45;10.23;;;5.80;;
8791;SDS011;4432;50.890;4.744;2023-04-24T05:54:11;7.90;;;4.57;;
8791;SDS011;4432;50.890;4.744;2023-04-24T05:56:37;10.80;;;5.23;;
8791;SDS011;4432;50.890;4.744;2023-04-24T05:59:03;8.90;;;4.83;;
8791;SDS011;4432;50.890;4.744;2023-04-24T06:01:29;8.83;;;5.20;;
8791;SDS011;4432;50.890;4.744;2023-04-24T06:03:56;6.33;;;5.10;;
8791;SDS011;4432;50.890;4.744;2023-04-24T06:06:23;8.33;;;5.20;;
8791;SDS011;4432;50.890;4.744;2023-04-24T06:08:49;8.50;;;5.10;;
8791;SDS011;4432;50.890;4.744;2023-04-24T06:11:15;10.70;;;5.43;;
8791;SDS011;4432;50.890;4.744;2023-04-24T06:13:40;9.33;;;5.40;;
8791;SDS011;4432;50.890;4.744;2023-04-24T06:16:06;10.60;;;5.73;;
8791;SDS011;4432;50.890;4.744;2023-04-24T06:18:32;10.47;;;6.07;;
8791;SDS011;4432;50.890;4.744;2023-04-24T06:20:58;10.33;;;6.13;;
8791;SDS011;4432;50.890;4.744;2023-04-24T06:23:24;13.63;;;6.17;;
8791;SDS011;4432;50.890;4.744;2023-04-24T06:25:50;10.60;;;5.97;;
8791;SDS011;4432;50.890;4.744;2023-04-24T06:28:16;9.47;;;5.63;;
8791;SDS011;4432;50.890;4.744;2023-04-24T06:30:43;12.47;;;6.30;;
8791;SDS011;4432;50.890;4.744;2023-04-24T06:33:08;15.30;;;6.37;;
8791;SDS011;4432;50.890;4.744;2023-04-24T06:35:35;14.47;;;5.73;;
8791;SDS011;4432;50.890;4.744;2023-04-24T06:38:01;12.70;;;6.43;;
8791;SDS011;4432;50.890;4.744;2023-04-24T06:40:27;15.93;;;6.70;;
8791;SDS011;4432;50.890;4.744;2023-04-24T06:42:53;10.87;;;5.97;;
8791;SDS011;4432;50.890;4.744;2023-04-24T06:45:18;12.83;;;6.57;;
8791;SDS011;4432;50.890;4.744;2023-04-24T06:47:44;11.53;;;6.63;;
8791;SDS011;4432;50.890;4.744;2023-04-24T06:50:10;14.27;;;6.60;;
8791;SDS011;4432;50.890;4.744;2023-04-24T06:52:36;15.67;;;6.70;;
8791;SDS011;4432;50.890;4.744;2023-04-24T06:55:02;10.53;;;6.80;;
8791;SDS011;4432;50.890;4.744;2023-04-24T06:57:29;17.60;;;7.63;;
8791;SDS011;4432;50.890;4.744;2023-04-24T06:59:54;12.13;;;6.43;;
8791;SDS011;4432;50.890;4.744;2023-04-24T07:02:20;11.73;;;6.17;;
8791;SDS011;4432;50.890;4.744;2023-04-24T07:04:46;11.83;;;6.30;;
8791;SDS011;4432;50.890;4.744;2023-04-24T07:07:12;12.37;;;7.50;;
8791;SDS011;4432;50.890;4.744;2023-04-24T07:09:39;14.10;;;6.73;;
8791;SDS011;4432;50.890;4.744;2023-04-24T07:12:10;11.70;;;6.80;;
8791;SDS011;4432;50.890;4.744;2023-04-24T07:14:39;13.13;;;7.57;;
8791;SDS011;4432;50.890;4.744;2023-04-24T07:17:05;12.93;;;7.27;;
8791;SDS011;4432;50.890;4.744;2023-04-24T07:19:31;16.23;;;7.87;;
8791;SDS011;4432;50.890;4.744;2023-04-24T07:21:58;13.00;;;7.80;;
8791;SDS011;4432;50.890;4.744;2023-04-24T07:24:25;16.33;;;7.17;;
8791;SDS011;4432;50.890;4.744;2023-04-24T07:26:51;14.93;;;7.17;;
8791;SDS011;4432;50.890;4.744;2023-04-24T07:29:17;13.33;;;7.40;;
8791;SDS011;4432;50.890;4.744;2023-04-24T07:31:44;14.03;;;7.40;;
8791;SDS011;4432;50.890;4.744;2023-04-24T07:34:10;24.07;;;7.93;;
8791;SDS011;4432;50.890;4.744;2023-04-24T07:36:36;14.63;;;7.67;;
8791;SDS011;4432;50.890;4.744;2023-04-24T07:39:03;15.80;;;6.60;;
8791;SDS011;4432;50.890;4.744;2023-04-24T07:41:30;15.10;;;7.37;;
8791;SDS011;4432;50.890;4.744;2023-04-24T07:43:55;15.27;;;7.53;;
8791;SDS011;4432;50.890;4.744;2023-04-24T07:46:21;11.13;;;7.30;;
8791;SDS011;4432;50.890;4.744;2023-04-24T07:48:48;16.47;;;7.80;;
8791;SDS011;4432;50.890;4.744;2023-04-24T07:51:14;15.40;;;8.07;;
8791;SDS011;4432;50.890;4.744;2023-04-24T07:53:40;15.67;;;6.97;;
8791;SDS011;4432;50.890;4.744;2023-04-24T07:56:06;15.67;;;7.07;;
8791;SDS011;4432;50.890;4.744;2023-04-24T07:58:33;11.47;;;6.37;;
8791;SDS011;4432;50.890;4.744;2023-04-24T08:00:59;12.40;;;7.37;;
8791;SDS011;4432;50.890;4.744;2023-04-24T08:03:24;15.37;;;7.57;;
8791;SDS011;4432;50.890;4.744;2023-04-24T08:05:50;16.70;;;7.13;;
8791;SDS011;4432;50.890;4.744;2023-04-24T08:08:16;18.40;;;7.87;;
8791;SDS011;4432;50.890;4.744;2023-04-24T08:10:42;10.43;;;6.17;;
8791;SDS011;4432;50.890;4.744;2023-04-24T08:13:08;13.07;;;6.67;;
8791;SDS011;4432;50.890;4.744;2023-04-24T08:15:34;13.03;;;7.20;;
8791;SDS011;4432;50.890;4.744;2023-04-24T08:17:59;16.77;;;6.63;;
8791;SDS011;4432;50.890;4.744;2023-04-24T08:20:25;15.73;;;7.83;;
8791;SDS011;4432;50.890;4.744;2023-04-24T08:22:51;13.60;;;6.70;;
8791;SDS011;4432;50.890;4.744;2023-04-24T08:25:17;12.90;;;6.37;;
8791;SDS011;4432;50.890;4.744;2023-04-24T08:27:44;13.90;;;6.50;;
8791;SDS011;4432;50.890;4.744;2023-04-24T08:30:10;11.73;;;5.83;;
8791;SDS011;4432;50.890;4.744;2023-04-24T08:32:36;12.17;;;5.27;;
8791;SDS011;4432;50.890;4.744;2023-04-24T08:35:02;8.83;;;4.20;;
8791;SDS011;4432;50.890;4.744;2023-04-24T08:37:28;10.10;;;4.07;;
8791;SDS011;4432;50.890;4.744;2023-04-24T08:39:54;14.07;;;4.43;;
8791;SDS011;4432;50.890;4.744;2023-04-24T08:42:20;9.63;;;4.27;;
8791;SDS011;4432;50.890;4.744;2023-04-24T08:44:48;10.93;;;4.60;;
8791;SDS011;4432;50.890;4.744;2023-04-24T08:47:14;6.37;;;4.37;;
8791;SDS011;4432;50.890;4.744;2023-04-24T08:49:41;5.90;;;4.20;;
8791;SDS011;4432;50.890;4.744;2023-04-24T08:52:08;6.50;;;4.23;;
8791;SDS011;4432;50.890;4.744;2023-04-24T08:54:34;12.43;;;4.50;;
8791;SDS011;4432;50.890;4.744;2023-04-24T08:57:01;6.17;;;4.63;;
8791;SDS011;4432;50.890;4.744;2023-04-24T08:59:29;8.60;;;4.50;;
8791;SDS011;4432;50.890;4.744;2023-04-24T09:01:56;7.87;;;4.50;;
8791;SDS011;4432;50.890;4.744;2023-04-24T09:04:23;11.73;;;5.07;;
8791;SDS011;4432;50.890;4.744;2023-04-24T09:06:56;11.33;;;4.87;;
8791;SDS011;4432;50.890;4.744;2023-04-24T09:09:23;9.43;;;4.37;;
8791;SDS011;4432;50.890;4.744;2023-04-24T09:11:50;8.40;;;3.60;;
8791;SDS011;4432;50.890;4.744;2023-04-24T09:14:18;14.63;;;4.03;;
8791;SDS011;4432;50.890;4.744;2023-04-24T09:16:45;3.60;;;2.90;;
8791;SDS011;4432;50.890;4.744;2023-04-24T09:19:11;6.73;;;2.93;;
8791;SDS011;4432;50.890;4.744;2023-04-24T09:21:37;6.97;;;3.70;;
8791;SDS011;4432;50.890;4.744;2023-04-24T09:24:07;4.77;;;2.80;;
8791;SDS011;4432;50.890;4.744;2023-04-24T09:26:39;8.00;;;3.27;;
8791;SDS011;4432;50.890;4.744;2023-04-24T09:29:05;6.37;;;3.60;;
8791;SDS011;4432;50.890;4.744;2023-04-24T09:31:31;5.23;;;3.27;;
8791;SDS011;4432;50.890;4.744;2023-04-24T09:33:58;7.43;;;3.87;;
8791;SDS011;4432;50.890;4.744;2023-04-24T09:36:29;5.70;;;3.83;;
8791;SDS011;4432;50.890;4.744;2023-04-24T09:39:02;4.20;;;2.90;;
8791;SDS011;4432;50.890;4.744;2023-04-24T09:41:29;4.63;;;2.90;;
8791;SDS011;4432;50.890;4.744;2023-04-24T09:43:57;5.40;;;3.00;;
8791;SDS011;4432;50.890;4.744;2023-04-24T09:46:35;7.23;;;3.40;;
8791;SDS011;4432;50.890;4.744;2023-04-24T09:49:08;5.23;;;2.90;;
8791;SDS011;4432;50.890;4.744;2023-04-24T09:51:36;11.07;;;3.13;;
8791;SDS011;4432;50.890;4.744;2023-04-24T09:54:03;9.13;;;2.97;;
8791;SDS011;4432;50.890;4.744;2023-04-24T09:56:35;4.67;;;2.97;;
8791;SDS011;4432;50.890;4.744;2023-04-24T09:59:05;4.40;;;2.90;;
8791;SDS011;4432;50.890;4.744;2023-04-24T10:01:32;5.00;;;2.73;;
8791;SDS011;4432;50.890;4.744;2023-04-24T10:03:58;6.23;;;2.80;;
8791;SDS011;4432;50.890;4.744;2023-04-24T10:06:34;5.33;;;2.53;;
8791;SDS011;4432;50.890;4.744;2023-04-24T10:09:01;6.67;;;2.53;;
8791;SDS011;4432;50.890;4.744;2023-04-24T10:11:28;3.20;;;2.20;;
8791;SDS011;4432;50.890;4.744;2023-04-24T10:13:55;3.80;;;2.20;;
8791;SDS011;4432;50.890;4.744;2023-04-24T10:16:22;5.10;;;1.97;;
8791;SDS011;4432;50.890;4.744;2023-04-24T10:18:49;5.23;;;2.00;;
8791;SDS011;4432;50.890;4.744;2023-04-24T10:21:19;2.03;;;1.83;;
8791;SDS011;4432;50.890;4.744;2023-04-24T10:23:45;4.53;;;2.20;;
8791;SDS011;4432;50.890;4.744;2023-04-24T10:26:14;5.80;;;2.10;;
8791;SDS011;4432;50.890;4.744;2023-04-24T10:28:46;7.90;;;2.80;;
8791;SDS011;4432;50.890;4.744;2023-04-24T10:31:13;4.50;;;2.07;;
8791;SDS011;4432;50.890;4.744;2023-04-24T10:33:40;3.30;;;2.43;;
8791;SDS011;4432;50.890;4.744;2023-04-24T10:36:08;4.37;;;2.53;;
8791;SDS011;4432;50.890;4.744;2023-04-24T10:38:35;5.90;;;2.43;;
8791;SDS011;4432;50.890;4.744;2023-04-24T10:41:07;4.43;;;2.30;;
8791;SDS011;4432;50.890;4.744;2023-04-24T10:43:45;5.37;;;2.57;;
8791;SDS011;4432;50.890;4.744;2023-04-24T10:46:22;4.20;;;2.03;;
8791;SDS011;4432;50.890;4.744;2023-04-24T10:48:54;4.23;;;2.57;;
8791;SDS011;4432;50.890;4.744;2023-04-24T10:51:22;5.20;;;2.87;;
8791;SDS011;4432;50.890;4.744;2023-04-24T10:53:49;4.87;;;2.63;;
8791;SDS011;4432;50.890;4.744;2023-04-24T10:56:16;4.77;;;2.17;;
8791;SDS011;4432;50.890;4.744;2023-04-24T10:58:44;7.90;;;2.47;;
8791;SDS011;4432;50.890;4.744;2023-04-24T11:03:57;4.53;;;2.53;;
8791;SDS011;4432;50.890;4.744;2023-04-24T11:06:31;3.53;;;2.40;;
8791;SDS011;4432;50.890;4.744;2023-04-24T11:11:31;8.53;;;2.00;;
8791;SDS011;4432;50.890;4.744;2023-04-24T11:16:28;4.93;;;2.37;;
8791;SDS011;4432;50.890;4.744;2023-04-24T11:19:01;4.47;;;2.17;;
8791;SDS011;4432;50.890;4.744;2023-04-24T11:21:33;4.67;;;2.40;;
8791;SDS011;4432;50.890;4.744;2023-04-24T11:26:51;3.03;;;2.33;;
8791;SDS011;4432;50.890;4.744;2023-04-24T11:29:21;4.70;;;2.70;;
8791;SDS011;4432;50.890;4.744;2023-04-24T11:31:48;3.30;;;2.20;;
8791;SDS011;4432;50.890;4.744;2023-04-24T11:34:16;2.00;;;1.80;;
8791;SDS011;4432;50.890;4.744;2023-04-24T11:36:46;6.83;;;3.10;;
8791;SDS011;4432;50.890;4.744;2023-04-24T11:39:13;4.63;;;2.10;;
8791;SDS011;4432;50.890;4.744;2023-04-24T11:41:40;2.40;;;2.07;;
8791;SDS011;4432;50.890;4.744;2023-04-24T11:44:07;4.83;;;2.30;;
8791;SDS011;4432;50.890;4.744;2023-04-24T11:46:34;2.60;;;2.23;;
8791;SDS011;4432;50.890;4.744;2023-04-24T11:48:59;3.47;;;2.30;;
8791;SDS011;4432;50.890;4.744;2023-04-24T11:51:26;3.00;;;2.07;;
8791;SDS011;4432;50.890;4.744;2023-04-24T11:53:52;3.90;;;2.80;;
8791;SDS011;4432;50.890;4.744;2023-04-24T11:56:19;8.47;;;2.60;;
8791;SDS011;4432;50.890;4.744;2023-04-24T11:58:47;2.37;;;2.13;;
8791;SDS011;4432;50.890;4.744;2023-04-24T12:01:13;2.90;;;2.60;;
8791;SDS011;4432;50.890;4.744;2023-04-24T12:03:39;4.13;;;2.90;;
8791;SDS011;4432;50.890;4.744;2023-04-24T12:06:09;2.30;;;2.10;;
8791;SDS011;4432;50.890;4.744;2023-04-24T12:08:37;5.53;;;2.70;;
8791;SDS011;4432;50.890;4.744;2023-04-24T12:11:04;5.13;;;2.43;;
8791;SDS011;4432;50.890;4.744;2023-04-24T12:13:32;5.23;;;2.47;;
8791;SDS011;4432;50.890;4.744;2023-04-24T12:15:59;7.03;;;2.40;;
8791;SDS011;4432;50.890;4.744;2023-04-24T12:18:28;4.23;;;2.70;;
8791;SDS011;4432;50.890;4.744;2023-04-24T12:20:53;4.30;;;2.50;;
8791;SDS011;4432;50.890;4.744;2023-04-24T12:23:35;4.20;;;2.53;;
8791;SDS011;4432;50.890;4.744;2023-04-24T12:26:03;3.83;;;2.70;;
8791;SDS011;4432;50.890;4.744;2023-04-24T12:28:35;3.07;;;2.63;;
8791;SDS011;4432;50.890;4.744;2023-04-24T12:31:03;4.23;;;2.60;;
8791;SDS011;4432;50.890;4.744;2023-04-24T12:33:32;3.67;;;2.60;;
8791;SDS011;4432;50.890;4.744;2023-04-24T12:35:59;3.60;;;2.40;;
8791;SDS011;4432;50.890;4.744;2023-04-24T12:38:26;3.77;;;2.37;;
8791;SDS011;4432;50.890;4.744;2023-04-24T12:41:01;7.87;;;2.40;;
8791;SDS011;4432;50.890;4.744;2023-04-24T12:43:31;3.73;;;2.80;;
8791;SDS011;4432;50.890;4.744;2023-04-24T12:45:57;3.27;;;2.27;;
8791;SDS011;4432;50.890;4.744;2023-04-24T12:48:27;5.93;;;2.60;;
8791;SDS011;4432;50.890;4.744;2023-04-24T12:50:53;3.13;;;2.13;;
8791;SDS011;4432;50.890;4.744;2023-04-24T12:53:20;2.40;;;2.00;;
8791;SDS011;4432;50.890;4.744;2023-04-24T12:55:46;4.97;;;2.70;;
8791;SDS011;4432;50.890;4.744;2023-04-24T12:58:17;2.73;;;2.30;;
8791;SDS011;4432;50.890;4.744;2023-04-24T13:00:46;2.83;;;2.43;;
8791;SDS011;4432;50.890;4.744;2023-04-24T13:03:12;2.97;;;2.13;;
8791;SDS011;4432;50.890;4.744;2023-04-24T13:05:38;3.23;;;2.67;;
8791;SDS011;4432;50.890;4.744;2023-04-24T13:08:05;3.03;;;2.10;;
8791;SDS011;4432;50.890;4.744;2023-04-24T13:10:30;3.30;;;2.50;;
8791;SDS011;4432;50.890;4.744;2023-04-24T13:12:56;4.03;;;2.53;;
8791;SDS011;4432;50.890;4.744;2023-04-24T13:15:22;4.23;;;2.60;;
8791;SDS011;4432;50.890;4.744;2023-04-24T13:17:48;2.20;;;2.00;;
8791;SDS011;4432;50.890;4.744;2023-04-24T13:20:14;4.47;;;2.27;;
8791;SDS011;4432;50.890;4.744;2023-04-24T13:22:40;4.70;;;2.10;;
8791;SDS011;4432;50.890;4.744;2023-04-24T13:25:06;2.93;;;2.00;;
8791;SDS011;4432;50.890;4.744;2023-04-24T13:27:32;2.17;;;1.97;;
8791;SDS011;4432;50.890;4.744;2023-04-24T13:29:58;4.57;;;2.43;;
8791;SDS011;4432;50.890;4.744;2023-04-24T13:32:23;4.73;;;2.60;;
8791;SDS011;4432;50.890;4.744;2023-04-24T13:34:50;3.67;;;2.20;;
8791;SDS011;4432;50.890;4.744;2023-04-24T13:37:16;3.10;;;2.20;;
8791;SDS011;4432;50.890;4.744;2023-04-24T13:39:42;6.60;;;2.40;;
8791;SDS011;4432;50.890;4.744;2023-04-24T13:42:08;4.47;;;1.93;;
8791;SDS011;4432;50.890;4.744;2023-04-24T13:44:33;9.67;;;2.10;;
8791;SDS011;4432;50.890;4.744;2023-04-24T13:46:59;2.93;;;2.00;;
8791;SDS011;4432;50.890;4.744;2023-04-24T13:49:25;4.77;;;2.10;;
8791;SDS011;4432;50.890;4.744;2023-04-24T13:51:52;1.90;;;1.73;;
8791;SDS011;4432;50.890;4.744;2023-04-24T13:54:19;7.53;;;2.17;;
8791;SDS011;4432;50.890;4.744;2023-04-24T13:56:44;2.40;;;2.00;;
8791;SDS011;4432;50.890;4.744;2023-04-24T13:59:12;3.47;;;2.00;;
8791;SDS011;4432;50.890;4.744;2023-04-24T14:01:38;4.17;;;2.00;;
8791;SDS011;4432;50.890;4.744;2023-04-24T14:04:04;2.27;;;2.03;;
8791;SDS011;4432;50.890;4.744;2023-04-24T14:06:29;3.20;;;2.20;;
8791;SDS011;4432;50.890;4.744;2023-04-24T14:08:56;5.07;;;1.93;;
8791;SDS011;4432;50.890;4.744;2023-04-24T14:11:22;4.17;;;2.17;;
8791;SDS011;4432;50.890;4.744;2023-04-24T14:13:47;3.30;;;2.27;;
8791;SDS011;4432;50.890;4.744;2023-04-24T14:16:14;2.00;;;1.63;;
8791;SDS011;4432;50.890;4.744;2023-04-24T14:18:39;1.83;;;1.70;;
8791;SDS011;4432;50.890;4.744;2023-04-24T14:21:05;1.70;;;1.60;;
8791;SDS011;4432;50.890;4.744;2023-04-24T14:23:31;4.80;;;1.73;;
8791;SDS011;4432;50.890;4.744;2023-04-24T14:25:57;3.33;;;1.50;;
8791;SDS011;4432;50.890;4.744;2023-04-24T14:28:24;2.03;;;1.50;;
8791;SDS011;4432;50.890;4.744;2023-04-24T14:30:51;6.10;;;1.70;;
8791;SDS011;4432;50.890;4.744;2023-04-24T14:33:17;1.73;;;1.63;;
8791;SDS011;4432;50.890;4.744;2023-04-24T14:35:43;1.43;;;1.33;;
8791;SDS011;4432;50.890;4.744;2023-04-24T14:38:09;3.23;;;1.40;;
8791;SDS011;4432;50.890;4.744;2023-04-24T14:40:36;1.97;;;1.37;;
8791;SDS011;4432;50.890;4.744;2023-04-24T14:43:02;2.00;;;1.43;;
8791;SDS011;4432;50.890;4.744;2023-04-24T14:45:28;1.77;;;1.50;;
8791;SDS011;4432;50.890;4.744;2023-04-24T14:47:54;1.50;;;1.40;;
8791;SDS011;4432;50.890;4.744;2023-04-24T14:50:20;1.60;;;1.50;;
8791;SDS011;4432;50.890;4.744;2023-04-24T14:52:46;4.73;;;1.83;;
8791;SDS011;4432;50.890;4.744;2023-04-24T14:55:12;3.13;;;1.80;;
8791;SDS011;4432;50.890;4.744;2023-04-24T14:57:38;4.90;;;1.60;;
8791;SDS011;4432;50.890;4.744;2023-04-24T15:00:07;3.73;;;1.83;;
8791;SDS011;4432;50.890;4.744;2023-04-24T15:02:35;1.90;;;1.67;;
8791;SDS011;4432;50.890;4.744;2023-04-24T15:05:05;4.10;;;2.07;;
8791;SDS011;4432;50.890;4.744;2023-04-24T15:07:31;2.43;;;1.97;;
8791;SDS011;4432;50.890;4.744;2023-04-24T15:09:58;4.30;;;2.00;;
8791;SDS011;4432;50.890;4.744;2023-04-24T15:12:23;2.43;;;2.00;;
8791;SDS011;4432;50.890;4.744;2023-04-24T15:14:49;2.40;;;1.93;;
8791;SDS011;4432;50.890;4.744;2023-04-24T15:17:15;2.07;;;1.80;;